createdAt,value
2019-03-25T00:01:26.432Z,15.20
2019-03-25T00:03:55.885Z,15.77
2019-03-25T00:06:25.376Z,15.07
2019-03-25T00:09:04.913Z,15.33
2019-03-25T00:11:27.894Z,16.60
2019-03-25T00:13:57.664Z,15.73
2019-03-25T00:16:27.492Z,16.03
2019-03-25T00:18:56.961Z,15.43
2019-03-25T00:21:29.145Z,14.63
2019-03-25T00:23:58.687Z,15.77
2019-03-25T00:26:28.174Z,14.13
2019-03-25T00:29:16.995Z,15.73
2019-03-25T00:31:46.458Z,16.17
2019-03-25T00:34:15.921Z,15.50
2019-03-25T00:36:45.617Z,16.40
2019-03-25T00:39:15.174Z,15.53
2019-03-25T00:41:44.714Z,14.93
2019-03-25T00:44:14.217Z,15.47
2019-03-25T00:46:43.685Z,15.60
2019-03-25T00:49:14.601Z,15.10
2019-03-25T00:51:44.002Z,15.80
2019-03-25T00:54:32.809Z,15.60
2019-03-25T00:57:02.508Z,13.90
2019-03-25T00:59:32.003Z,14.93
2019-03-25T01:02:01.489Z,14.13
2019-03-25T01:04:31.080Z,14.40
2019-03-25T01:07:00.559Z,15.63
2019-03-25T01:09:30.046Z,16.63
2019-03-25T01:11:59.854Z,16.70
2019-03-25T01:14:29.354Z,15.43
2019-03-25T01:16:58.806Z,15.83
2019-03-25T01:19:28.330Z,16.23
2019-03-25T01:21:57.797Z,14.60
2019-03-25T01:24:27.272Z,14.90
2019-03-25T01:26:57.120Z,15.50
2019-03-25T01:29:26.622Z,15.40
2019-03-25T01:31:56.145Z,14.73
2019-03-25T01:34:25.635Z,13.60
2019-03-25T01:36:55.097Z,13.97
2019-03-25T01:39:24.587Z,13.97
2019-03-25T01:41:55.412Z,13.60
2019-03-25T01:44:24.902Z,14.67
2019-03-25T01:46:54.383Z,15.03
2019-03-25T01:49:23.878Z,14.47
2019-03-25T01:51:53.391Z,13.63
2019-03-25T01:54:22.848Z,13.57
2019-03-25T01:56:52.376Z,13.27
2019-03-25T01:59:21.855Z,13.47
2019-03-25T02:01:51.219Z,12.83
2019-03-25T02:04:20.737Z,13.90
2019-03-25T02:06:51.734Z,13.13
2019-03-25T02:09:21.187Z,14.07
2019-03-25T02:12:10.014Z,14.33
2019-03-25T02:14:39.473Z,13.30
2019-03-25T02:17:08.964Z,14.03
2019-03-25T02:19:57.801Z,12.97
2019-03-25T02:22:27.411Z,12.93
2019-03-25T02:24:57.077Z,13.00
2019-03-25T02:27:26.575Z,12.33
2019-03-25T02:29:56.057Z,12.97
2019-03-25T02:32:25.551Z,11.90
2019-03-25T02:34:55.038Z,12.23
2019-03-25T02:37:24.537Z,11.20
2019-03-25T02:39:53.986Z,12.53
2019-03-25T02:42:23.870Z,11.13
2019-03-25T02:44:53.385Z,11.07
2019-03-25T02:47:22.884Z,10.77
2019-03-25T02:49:52.350Z,10.87
2019-03-25T02:52:21.823Z,10.30
2019-03-25T02:54:51.354Z,10.37
2019-03-25T02:57:22.389Z,10.93
2019-03-25T02:59:51.829Z,9.87
2019-03-25T03:02:21.372Z,10.23
2019-03-25T03:04:50.919Z,11.20
2019-03-25T03:07:20.378Z,10.07
2019-03-25T03:09:49.856Z,9.60
2019-03-25T03:12:38.654Z,9.43
2019-03-25T03:15:08.841Z,9.03
2019-03-25T03:17:38.314Z,9.13
2019-03-25T03:20:09.047Z,8.50
2019-03-25T03:22:38.611Z,9.50
2019-03-25T03:25:08.558Z,9.50
2019-03-25T03:27:38.052Z,9.67
2019-03-25T03:30:08.523Z,9.07
2019-03-25T03:32:37.995Z,8.87
2019-03-25T03:35:08.695Z,9.50
2019-03-25T03:37:38.131Z,8.93
2019-03-25T03:40:07.957Z,9.10
2019-03-25T03:42:38.611Z,8.13
2019-03-25T03:45:08.705Z,9.70
2019-03-25T03:47:38.209Z,9.23
2019-03-25T03:50:09.365Z,8.67
2019-03-25T03:52:39.369Z,8.87
2019-03-25T03:55:09.579Z,9.10
2019-03-25T03:57:40.731Z,8.57
2019-03-25T04:00:14.755Z,9.20
2019-03-25T04:02:45.265Z,8.43
2019-03-25T04:05:14.772Z,8.23
2019-03-25T04:07:44.327Z,8.13
2019-03-25T04:10:14.079Z,8.83
2019-03-25T04:12:45.107Z,8.50
2019-03-25T04:15:19.173Z,9.07
2019-03-25T04:17:48.659Z,7.70
2019-03-25T04:20:18.187Z,8.67
2019-03-25T04:23:06.984Z,9.23
2019-03-25T04:25:36.507Z,8.80
2019-03-25T04:28:05.991Z,8.73
2019-03-25T04:30:35.471Z,8.53
2019-03-25T04:33:04.992Z,9.07
2019-03-25T04:35:34.520Z,8.87
2019-03-25T04:38:05.523Z,9.70
2019-03-25T04:40:34.999Z,9.00
2019-03-25T04:43:04.558Z,8.73
2019-03-25T04:45:34.019Z,7.77
2019-03-25T04:48:03.526Z,8.33
2019-03-25T04:50:52.293Z,7.90
2019-03-25T04:53:21.817Z,8.07
2019-03-25T04:55:54.145Z,8.07
2019-03-25T04:58:23.650Z,8.20
2019-03-25T05:00:53.351Z,7.97
2019-03-25T05:03:22.847Z,8.73
2019-03-25T05:05:52.303Z,8.57
2019-03-25T05:08:21.802Z,8.73
2019-03-25T05:10:51.293Z,8.80
2019-03-25T05:13:29.637Z,8.53
2019-03-25T05:15:59.089Z,8.17
2019-03-25T05:18:31.235Z,9.03
2019-03-25T05:21:01.056Z,8.60
2019-03-25T05:23:30.590Z,7.90
2019-03-25T05:26:00.062Z,8.10
2019-03-25T05:28:48.929Z,7.33
2019-03-25T05:31:18.392Z,7.83
2019-03-25T05:33:47.878Z,8.17
2019-03-25T05:36:17.394Z,9.40
2019-03-25T05:38:46.874Z,9.13
2019-03-25T05:41:16.371Z,9.80
2019-03-25T05:43:47.007Z,9.13
2019-03-25T05:46:16.488Z,10.30
2019-03-25T05:48:45.987Z,11.97
2019-03-25T05:51:17.029Z,11.00
2019-03-25T05:53:46.557Z,11.33
2019-03-25T05:56:16.041Z,11.53
2019-03-25T05:58:45.510Z,10.23
2019-03-25T06:01:15.313Z,9.87
2019-03-25T06:03:45.008Z,10.07
2019-03-25T06:06:14.557Z,9.83
2019-03-25T06:08:44.062Z,11.00
2019-03-25T06:11:13.567Z,10.47
2019-03-25T06:13:43.036Z,9.40
2019-03-25T06:16:12.521Z,10.53
2019-03-25T06:18:42.021Z,10.43
2019-03-25T06:21:11.523Z,10.60
2019-03-25T06:23:41.006Z,11.07
2019-03-25T06:26:10.492Z,10.83
2019-03-25T06:28:39.981Z,11.20
2019-03-25T06:31:09.489Z,10.90
2019-03-25T06:33:44.911Z,10.80
2019-03-25T06:36:14.665Z,10.43
2019-03-25T06:38:44.183Z,10.73
2019-03-25T06:41:13.693Z,10.80
2019-03-25T06:43:43.231Z,10.87
2019-03-25T06:46:14.183Z,10.70
2019-03-25T06:48:43.674Z,10.07
2019-03-25T06:51:13.165Z,10.50
2019-03-25T06:53:42.752Z,10.97
2019-03-25T06:56:12.249Z,11.43
2019-03-25T06:58:41.766Z,9.83
2019-03-25T07:01:11.251Z,9.43
2019-03-25T07:03:40.716Z,9.57
2019-03-25T07:06:10.506Z,9.80
2019-03-25T07:08:39.971Z,8.77
2019-03-25T07:11:10.640Z,9.97
2019-03-25T07:13:40.314Z,9.17
2019-03-25T07:16:10.033Z,8.87
2019-03-25T07:18:39.489Z,9.30
2019-03-25T07:21:08.964Z,7.70
2019-03-25T07:23:38.603Z,7.80
2019-03-25T07:26:08.087Z,7.00
2019-03-25T07:28:56.917Z,5.33
2019-03-25T07:31:26.414Z,4.97
2019-03-25T07:33:55.879Z,5.17
2019-03-25T07:36:25.358Z,4.30
2019-03-25T07:38:54.833Z,4.55
2019-03-25T07:41:24.538Z,4.25
2019-03-25T07:43:54.015Z,4.37
2019-03-25T07:46:23.883Z,4.20
2019-03-25T07:48:53.489Z,4.30
2019-03-25T07:51:22.973Z,4.25
2019-03-25T07:53:52.441Z,4.30
2019-03-25T07:56:21.955Z,4.25
2019-03-25T07:58:51.458Z,4.30
2019-03-25T08:01:21.073Z,4.37
2019-03-25T08:03:50.589Z,4.62
2019-03-25T08:06:20.110Z,4.72
2019-03-25T08:08:49.555Z,4.22
2019-03-25T08:11:19.050Z,4.33
2019-03-25T08:13:48.527Z,4.60
2019-03-25T08:16:18.026Z,4.53
2019-03-25T08:18:47.510Z,4.87
2019-03-25T08:21:17.022Z,5.55
2019-03-25T08:23:46.488Z,4.72
2019-03-25T08:26:15.982Z,5.20
2019-03-25T08:28:48.290Z,4.60
2019-03-25T08:31:17.788Z,6.00
2019-03-25T08:33:47.344Z,5.57
2019-03-25T08:36:18.497Z,4.90
2019-03-25T08:38:48.038Z,4.80
2019-03-25T08:41:17.707Z,5.33
2019-03-25T08:43:47.226Z,5.60
2019-03-25T08:46:16.654Z,5.20
2019-03-25T08:48:46.390Z,4.87
2019-03-25T08:51:15.895Z,5.03
2019-03-25T08:53:45.414Z,5.40
2019-03-25T08:56:14.897Z,5.53
2019-03-25T08:58:44.401Z,4.93
2019-03-25T09:01:13.891Z,5.10
2019-03-25T09:03:43.502Z,5.33
2019-03-25T09:06:15.242Z,5.13
2019-03-25T09:08:44.786Z,4.70
2019-03-25T09:11:14.237Z,4.03
2019-03-25T09:13:45.277Z,5.22
2019-03-25T09:16:14.979Z,4.10
2019-03-25T09:18:44.454Z,4.80
2019-03-25T09:21:15.783Z,4.75
2019-03-25T09:23:50.968Z,4.80
2019-03-25T09:26:20.486Z,4.30
2019-03-25T09:28:50.075Z,4.60
2019-03-25T09:31:20.744Z,4.22
2019-03-25T09:33:51.009Z,4.10
2019-03-25T09:36:22.070Z,4.08
2019-03-25T09:38:52.002Z,4.05
2019-03-25T09:41:21.994Z,4.28
2019-03-25T09:43:51.831Z,4.03
2019-03-25T09:46:22.034Z,4.40
2019-03-25T09:48:52.163Z,3.60
2019-03-25T09:51:21.844Z,3.65
2019-03-25T09:53:51.374Z,3.33
2019-03-25T09:56:20.939Z,3.30
2019-03-25T09:58:50.673Z,3.22
2019-03-25T10:01:20.230Z,2.87
2019-03-25T10:03:49.884Z,3.22
2019-03-25T10:06:19.601Z,3.10
2019-03-25T10:08:49.128Z,3.25
2019-03-25T10:11:18.709Z,3.10
2019-03-25T10:13:48.181Z,3.12
2019-03-25T10:16:17.713Z,3.00
2019-03-25T10:18:47.221Z,2.70
2019-03-25T10:21:16.713Z,2.52
2019-03-25T10:23:46.256Z,3.00
2019-03-25T10:26:15.763Z,2.53
2019-03-25T10:28:48.950Z,2.42
2019-03-25T10:31:17.484Z,2.80
2019-03-25T10:33:47.121Z,2.42
2019-03-25T10:36:16.617Z,3.02
2019-03-25T10:38:46.070Z,2.45
2019-03-25T10:41:15.674Z,2.63
2019-03-25T10:43:45.178Z,2.70
2019-03-25T10:46:14.621Z,2.30
2019-03-25T10:48:44.126Z,2.83
2019-03-25T10:51:13.614Z,3.00
2019-03-25T10:53:43.076Z,3.07
2019-03-25T10:56:12.602Z,2.47
2019-03-25T10:58:42.163Z,2.10
2019-03-25T11:01:11.960Z,2.02
2019-03-25T11:03:41.639Z,2.08
2019-03-25T11:06:11.175Z,1.92
2019-03-25T11:08:40.650Z,1.67
2019-03-25T11:11:10.169Z,1.72
2019-03-25T11:13:39.618Z,1.57
2019-03-25T11:16:10.407Z,1.62
2019-03-25T11:18:39.980Z,1.45
2019-03-25T11:21:09.534Z,1.47
2019-03-25T11:23:40.543Z,1.30
2019-03-25T11:26:10.055Z,1.50
2019-03-25T11:28:39.517Z,1.30
2019-03-25T11:31:09.015Z,1.52
2019-03-25T11:33:38.519Z,1.52
2019-03-25T11:36:08.204Z,1.35
2019-03-25T11:38:37.671Z,1.50
2019-03-25T11:41:07.223Z,1.22
2019-03-25T11:43:38.987Z,1.65
2019-03-25T11:46:08.564Z,1.20
2019-03-25T11:48:38.091Z,1.32
2019-03-25T11:51:09.017Z,1.37
2019-03-25T11:53:38.567Z,1.15
2019-03-25T11:56:09.649Z,1.60
2019-03-25T11:58:39.126Z,1.20
2019-03-25T12:01:08.588Z,1.37
2019-03-25T12:03:38.092Z,1.60
2019-03-25T12:06:07.995Z,1.52
2019-03-25T12:08:37.493Z,1.40
2019-03-25T12:11:07.095Z,1.40
2019-03-25T12:13:36.570Z,1.37
2019-03-25T12:16:06.253Z,1.42
2019-03-25T12:18:35.758Z,1.55
2019-03-25T12:21:05.329Z,1.50
2019-03-25T12:23:34.797Z,1.50
2019-03-25T12:26:04.219Z,1.12
2019-03-25T12:28:33.533Z,1.30
2019-03-25T12:31:03.028Z,1.37
2019-03-25T12:33:32.536Z,1.87
2019-03-25T12:36:02.015Z,1.40
2019-03-25T12:38:31.498Z,1.32
2019-03-25T12:41:01.105Z,1.35
2019-03-25T12:43:30.828Z,1.40
2019-03-25T12:46:00.386Z,1.40
2019-03-25T12:48:29.906Z,1.17
2019-03-25T12:50:59.360Z,1.25
2019-03-25T12:53:28.829Z,1.42
2019-03-25T12:55:59.369Z,1.65
2019-03-25T12:58:28.831Z,1.52
2019-03-25T13:00:58.302Z,0.93
2019-03-25T13:03:27.805Z,1.15
2019-03-25T13:05:57.308Z,1.20
2019-03-25T13:08:33.104Z,1.20
2019-03-25T13:10:58.085Z,1.20
2019-03-25T13:13:27.540Z,1.00
2019-03-25T13:15:57.087Z,1.23
2019-03-25T13:18:26.519Z,0.90
2019-03-25T13:20:55.980Z,1.20
2019-03-25T13:23:25.448Z,1.07
2019-03-25T13:25:54.988Z,1.15
2019-03-25T13:28:24.516Z,1.45
2019-03-25T13:30:54.003Z,1.27
2019-03-25T13:33:23.583Z,1.70
2019-03-25T13:35:53.095Z,1.35
2019-03-25T13:38:22.600Z,1.20
2019-03-25T13:40:52.087Z,1.47
2019-03-25T13:43:21.582Z,1.77
2019-03-25T13:45:51.073Z,1.52
2019-03-25T13:48:20.911Z,1.72
2019-03-25T13:50:50.406Z,1.70
2019-03-25T13:53:19.859Z,1.80
2019-03-25T13:55:49.366Z,1.32
2019-03-25T13:58:18.891Z,1.00
2019-03-25T14:00:48.379Z,1.47
2019-03-25T14:03:17.857Z,1.30
2019-03-25T14:05:47.337Z,1.10
2019-03-25T14:08:16.783Z,1.30
2019-03-25T14:10:46.158Z,1.13
2019-03-25T14:13:15.602Z,1.30
2019-03-25T14:15:45.084Z,1.30
2019-03-25T14:18:14.569Z,1.30
2019-03-25T14:20:44.084Z,1.30
2019-03-25T14:23:13.538Z,1.40
2019-03-25T14:25:43.001Z,1.20
2019-03-25T14:28:12.449Z,1.50
2019-03-25T14:30:43.417Z,0.87
2019-03-25T14:33:12.888Z,0.83
2019-03-25T14:35:42.335Z,0.83
2019-03-25T14:38:11.824Z,1.03
2019-03-25T14:40:41.321Z,0.90
2019-03-25T14:43:10.774Z,1.00
2019-03-25T14:45:40.297Z,1.07
2019-03-25T14:48:09.805Z,1.07
2019-03-25T14:50:39.257Z,1.17
2019-03-25T14:53:10.333Z,1.10
2019-03-25T14:55:41.582Z,1.30
2019-03-25T14:58:11.043Z,1.07
2019-03-25T15:00:40.667Z,1.40
2019-03-25T15:03:10.506Z,1.00
2019-03-25T15:05:40.056Z,1.20
2019-03-25T15:08:09.529Z,1.20
2019-03-25T15:10:39.020Z,1.40
2019-03-25T15:13:08.499Z,1.40
2019-03-25T15:15:38.032Z,1.50
2019-03-25T15:18:15.430Z,1.27
2019-03-25T15:20:38.951Z,1.43
2019-03-25T15:23:08.439Z,1.50
2019-03-25T15:25:37.904Z,1.67
2019-03-25T15:28:07.367Z,1.50
2019-03-25T15:30:36.919Z,1.40
2019-03-25T15:33:06.430Z,1.40
2019-03-25T15:35:35.902Z,1.40
2019-03-25T15:38:05.371Z,1.40
2019-03-25T15:40:35.001Z,1.67
2019-03-25T15:43:04.532Z,1.37
2019-03-25T15:45:34.051Z,1.50
2019-03-25T15:48:03.525Z,1.67
2019-03-25T15:50:32.984Z,1.83
2019-03-25T15:53:02.495Z,1.80
2019-03-25T15:55:31.999Z,1.80
2019-03-25T15:58:25.920Z,1.80
2019-03-25T16:00:52.080Z,1.60
2019-03-25T16:03:21.625Z,1.50
2019-03-25T16:05:51.122Z,1.60
2019-03-25T16:08:22.177Z,1.30
2019-03-25T16:10:51.989Z,1.43
2019-03-25T16:13:21.664Z,1.73
2019-03-25T16:15:51.434Z,1.73
2019-03-25T16:18:25.423Z,1.50
2019-03-25T16:20:54.912Z,1.97
2019-03-25T16:23:25.891Z,1.93
2019-03-25T16:25:55.377Z,2.20
2019-03-25T16:28:24.840Z,1.67
2019-03-25T16:30:59.015Z,1.90
2019-03-25T16:33:25.552Z,2.07
2019-03-25T16:35:55.026Z,1.90
2019-03-25T16:38:24.601Z,1.83
2019-03-25T16:40:54.595Z,1.80
2019-03-25T16:43:24.135Z,1.87
2019-03-25T16:45:53.647Z,1.97
2019-03-25T16:48:23.137Z,2.10
2019-03-25T16:50:52.613Z,2.10
2019-03-25T16:53:22.379Z,2.00
2019-03-25T16:55:51.885Z,1.30
2019-03-25T16:58:21.360Z,2.10
2019-03-25T17:00:50.882Z,1.87
2019-03-25T17:03:20.331Z,1.93
2019-03-25T17:05:49.814Z,1.87
2019-03-25T17:08:20.648Z,1.90
2019-03-25T17:10:50.134Z,2.00
2019-03-25T17:13:19.583Z,1.50
2019-03-25T17:15:49.096Z,1.70
2019-03-25T17:18:18.555Z,1.90
2019-03-25T17:20:48.033Z,2.10
2019-03-25T17:23:17.511Z,2.20
2019-03-25T17:25:52.955Z,2.17
2019-03-25T17:28:18.225Z,0.90
2019-03-25T17:30:48.977Z,1.30
2019-03-25T17:33:24.176Z,1.70
2019-03-25T17:35:53.624Z,1.40
2019-03-25T17:38:23.538Z,1.40
2019-03-25T17:40:53.023Z,1.50
2019-03-25T17:43:23.980Z,1.57
2019-03-25T17:45:53.488Z,1.60
2019-03-25T17:48:28.806Z,1.37
2019-03-25T17:50:58.348Z,1.30
2019-03-25T17:53:27.942Z,1.43
2019-03-25T17:55:57.384Z,1.50
2019-03-25T17:58:26.866Z,1.57
2019-03-25T18:03:51.353Z,1.60
2019-03-25T18:06:20.820Z,1.30
2019-03-25T18:08:50.280Z,2.00
2019-03-25T18:11:22.708Z,1.70
2019-03-25T18:13:51.424Z,1.70
2019-03-25T18:16:22.496Z,1.80
2019-03-25T18:18:52.007Z,1.57
2019-03-25T18:21:21.530Z,1.60
2019-03-25T18:23:51.042Z,1.70
2019-03-25T18:26:22.097Z,1.60
2019-03-25T18:28:51.555Z,1.50
2019-03-25T18:31:21.212Z,1.53
2019-03-25T18:33:50.781Z,1.73
2019-03-25T18:36:20.257Z,1.50
2019-03-25T18:38:49.715Z,1.80
2019-03-25T18:41:19.215Z,1.50
2019-03-25T18:43:48.728Z,1.40
2019-03-25T18:46:18.276Z,1.70
2019-03-25T18:48:47.928Z,1.53
2019-03-25T18:51:17.545Z,1.70
2019-03-25T18:53:48.536Z,1.40
2019-03-25T18:56:18.215Z,1.60
2019-03-25T18:58:47.778Z,1.77
2019-03-25T19:01:17.590Z,1.60
2019-03-25T19:03:47.222Z,1.90
2019-03-25T19:06:17.300Z,1.80
2019-03-25T19:09:07.869Z,2.03
2019-03-25T19:11:37.362Z,2.00
2019-03-25T19:14:06.858Z,1.97
2019-03-25T19:16:36.355Z,2.17
2019-03-25T19:19:07.354Z,1.90
2019-03-25T19:21:36.809Z,2.13
2019-03-25T19:24:25.637Z,2.47
2019-03-25T19:26:55.139Z,2.90
2019-03-25T19:29:24.580Z,2.60
2019-03-25T19:32:05.850Z,2.90
2019-03-25T19:34:25.396Z,2.47
2019-03-25T19:36:54.898Z,2.60
2019-03-25T19:39:43.842Z,2.90
2019-03-25T19:42:13.295Z,2.53
2019-03-25T19:44:42.783Z,2.90
2019-03-25T19:47:12.269Z,3.03
2019-03-25T19:49:41.717Z,2.90
2019-03-25T19:52:11.213Z,3.00
2019-03-25T19:54:40.727Z,3.40
2019-03-25T19:57:10.163Z,3.17
2019-03-25T19:59:39.655Z,3.40
2019-03-25T20:02:18.296Z,3.27
2019-03-25T20:04:40.610Z,2.97
2019-03-25T20:07:10.187Z,3.47
2019-03-25T20:09:42.450Z,3.23
2019-03-25T20:12:11.104Z,3.23
2019-03-25T20:14:40.576Z,3.73
2019-03-25T20:17:10.135Z,3.63
2019-03-25T20:19:39.592Z,3.40
2019-03-25T20:22:09.119Z,3.20
2019-03-25T20:24:38.659Z,3.90
2019-03-25T20:27:08.130Z,4.10
2019-03-25T20:29:37.605Z,3.93
2019-03-25T20:32:07.108Z,3.87
2019-03-25T20:34:37.793Z,4.73
2019-03-25T20:37:07.717Z,3.97
2019-03-25T20:39:56.598Z,3.87
2019-03-25T20:42:26.080Z,4.20
2019-03-25T20:44:55.587Z,3.80
2019-03-25T20:47:25.076Z,3.90
2019-03-25T20:49:54.575Z,4.40
2019-03-25T20:52:24.632Z,4.40
2019-03-25T20:54:54.469Z,4.43
2019-03-25T20:57:43.276Z,4.53
2019-03-25T21:00:14.373Z,4.37
2019-03-25T21:02:45.326Z,4.40
2019-03-25T21:05:15.434Z,4.03
2019-03-25T21:07:44.909Z,4.10
2019-03-25T21:10:14.880Z,4.37
2019-03-25T21:12:44.345Z,4.00
2019-03-25T21:15:14.338Z,4.47
2019-03-25T21:17:43.799Z,3.90
2019-03-25T21:20:13.709Z,4.63
2019-03-25T21:22:43.322Z,4.63
2019-03-25T21:25:13.203Z,4.87
2019-03-25T21:28:02.164Z,4.57
2019-03-25T21:30:31.685Z,4.97
2019-03-25T21:33:02.620Z,4.47
2019-03-25T21:35:32.182Z,4.43
2019-03-25T21:38:01.673Z,4.77
2019-03-25T21:40:31.224Z,4.33
2019-03-25T21:43:00.775Z,4.40
2019-03-25T21:45:30.338Z,4.43
2019-03-25T21:47:59.772Z,5.03
2019-03-25T21:50:29.305Z,5.17
2019-03-25T21:52:58.844Z,5.00
2019-03-25T21:55:28.315Z,4.90
2019-03-25T21:57:57.900Z,5.20
2019-03-25T22:00:27.617Z,5.50
2019-03-25T22:02:57.102Z,5.60
2019-03-25T22:05:26.629Z,4.90
2019-03-25T22:07:56.119Z,6.50
2019-03-25T22:10:25.599Z,5.77
2019-03-25T22:12:55.073Z,5.83
2019-03-25T22:15:24.602Z,6.33
2019-03-25T22:17:54.228Z,5.53
2019-03-25T22:20:23.790Z,5.43
2019-03-25T22:22:53.244Z,5.13
2019-03-25T22:25:22.696Z,5.33
2019-03-25T22:27:52.234Z,5.40
2019-03-25T22:30:21.756Z,5.93
2019-03-25T22:32:51.182Z,6.23
2019-03-25T22:35:20.690Z,5.40
2019-03-25T22:37:50.164Z,6.23
2019-03-25T22:40:19.660Z,6.20
2019-03-25T22:42:49.141Z,5.13
2019-03-25T22:45:23.137Z,5.80
2019-03-25T22:47:52.606Z,5.80
2019-03-25T22:50:26.723Z,6.17
2019-03-25T22:52:57.436Z,6.00
2019-03-25T22:55:27.336Z,5.43
2019-03-25T22:58:16.138Z,5.40
2019-03-25T23:00:46.243Z,5.90
2019-03-25T23:03:16.044Z,5.83
2019-03-25T23:05:47.404Z,5.87
2019-03-25T23:08:19.803Z,5.93
2019-03-25T23:10:49.264Z,5.63
2019-03-25T23:13:18.799Z,5.93
2019-03-25T23:15:48.259Z,5.67
2019-03-25T23:18:37.060Z,5.93
2019-03-25T23:21:06.519Z,5.90
2019-03-25T23:23:36.000Z,5.50
2019-03-25T23:26:05.500Z,5.83
2019-03-25T23:28:34.993Z,5.83
2019-03-25T23:31:05.981Z,5.67
2019-03-25T23:33:54.799Z,5.87
2019-03-25T23:36:24.256Z,5.53
2019-03-25T23:38:53.743Z,6.23
2019-03-25T23:41:23.220Z,5.53
2019-03-25T23:43:52.776Z,5.97
2019-03-25T23:46:22.261Z,6.57
2019-03-25T23:49:11.076Z,6.00
2019-03-25T23:51:40.564Z,5.47
2019-03-25T23:54:11.630Z,4.90
2019-03-25T23:56:42.322Z,5.93
2019-03-25T23:59:12.112Z,6.00
